Time;durP1;ratioP1;P1;durP2;ratioP2;P2;SDS_P1;SDS_P2;PMS_P1;PMS_P2;Temp;Humidity;BMP_temperature;BMP_pressure;BME280_temperature;BME280_humidity;BME280_pressure;Samples;Min_cycle;Max_cycle;Signal;HPM_P1;HPM_P2
2023/09/06 00:01:27;;;;;;;12.27;10.98;;;20.60;99.90;;;;;;5047085;28;20750;-59
2023/09/06 00:03:55;;;;;;;15.15;11.38;;;20.60;99.90;;;;;;5045522;28;20048;-60
2023/09/06 00:06:22;;;;;;;13.80;11.25;;;20.50;99.90;;;;;;5046600;28;20403;-59
2023/09/06 00:08:48;;;;;;;15.07;11.07;;;20.50;99.90;;;;;;5043436;28;20044;-58
2023/09/06 00:11:15;;;;;;;13.07;10.63;;;20.50;99.90;;;;;;5041789;28;20469;-58
2023/09/06 00:13:40;;;;;;;12.35;10.60;;;20.50;99.90;;;;;;5049775;28;20037;-59
2023/09/06 00:16:07;;;;;;;11.13;9.90;;;20.50;99.90;;;;;;5047741;28;20451;-60
2023/09/06 00:18:33;;;;;;;14.98;10.43;;;20.50;99.90;;;;;;5047616;28;20051;-59
2023/09/06 00:20:59;;;;;;;12.07;9.88;;;20.50;99.90;;;;;;5038821;28;20128;-59
2023/09/06 00:23:26;;;;;;;11.90;10.48;;;20.40;99.90;;;;;;5045589;28;20448;-59
2023/09/06 00:25:54;;;;;;;12.77;10.95;;;20.40;99.90;;;;;;5045116;28;20062;-59
2023/09/06 00:28:20;;;;;;;10.50;9.45;;;20.40;99.90;;;;;;5048124;28;20105;-59
2023/09/06 00:30:46;;;;;;;13.65;10.13;;;20.40;99.90;;;;;;5045070;28;20607;-60
2023/09/06 00:33:12;;;;;;;12.60;9.73;;;20.30;99.90;;;;;;5046090;28;20029;-60
2023/09/06 00:35:41;;;;;;;13.05;11.00;;;20.30;99.90;;;;;;5046071;28;20112;-58
2023/09/06 00:38:07;;;;;;;9.75;8.73;;;20.30;99.90;;;;;;5042582;28;20048;-59
2023/09/06 00:40:37;;;;;;;15.30;9.50;;;20.30;99.90;;;;;;5031675;28;20049;-60
2023/09/06 00:43:04;;;;;;;16.35;9.75;;;20.20;99.90;;;;;;5047427;28;20049;-59
2023/09/06 00:45:37;;;;;;;10.93;9.55;;;20.20;99.90;;;;;;5044574;28;20051;-59
2023/09/06 00:48:05;;;;;;;13.60;9.27;;;20.20;99.90;;;;;;5047189;28;20060;-58
2023/09/06 00:50:34;;;;;;;14.07;11.00;;;20.20;99.90;;;;;;5045172;28;20043;-58
2023/09/06 00:53:01;;;;;;;13.55;11.00;;;20.10;99.90;;;;;;5046599;28;20044;-59
2023/09/06 00:55:27;;;;;;;10.93;9.68;;;20.00;99.90;;;;;;5009666;28;20057;-59
2023/09/06 00:57:53;;;;;;;14.00;10.88;;;20.00;99.90;;;;;;5036657;28;20372;-59
2023/09/06 01:00:19;;;;;;;11.38;10.18;;;20.00;99.90;;;;;;5039258;28;20040;-59
2023/09/06 01:02:48;;;;;;;14.18;10.85;;;19.90;99.90;;;;;;5033719;28;20131;-59
2023/09/06 01:05:15;;;;;;;15.00;10.98;;;19.90;99.90;;;;;;5034691;28;20140;-59
2023/09/06 01:07:45;;;;;;;11.43;10.25;;;19.90;99.90;;;;;;5030867;28;20737;-59
2023/09/06 01:10:11;;;;;;;12.07;10.88;;;19.90;99.90;;;;;;5037674;28;20060;-59
2023/09/06 01:12:37;;;;;;;11.57;10.32;;;19.80;99.90;;;;;;5036388;28;20072;-59
2023/09/06 01:15:04;;;;;;;15.13;11.05;;;19.80;99.90;;;;;;5038739;28;20056;-59
2023/09/06 01:17:32;;;;;;;13.93;11.20;;;19.70;99.90;;;;;;5035627;28;20066;-60
2023/09/06 01:20:09;;;;;;;13.35;11.45;;;19.70;99.90;;;;;;5037889;28;20033;-59
2023/09/06 01:22:41;;;;;;;13.18;11.77;;;19.70;99.90;;;;;;5038684;28;20064;-58
2023/09/06 01:25:08;;;;;;;14.48;12.98;;;19.70;99.90;;;;;;5038953;28;20049;-59
2023/09/06 01:27:35;;;;;;;16.70;14.25;;;19.60;99.90;;;;;;5037050;28;20057;-59
2023/09/06 01:30:01;;;;;;;16.45;12.60;;;19.60;99.90;;;;;;5034530;28;20033;-59
2023/09/06 01:32:27;;;;;;;17.65;14.38;;;19.50;99.90;;;;;;5038257;28;20489;-59
2023/09/06 01:34:54;;;;;;;16.70;11.98;;;19.50;99.90;;;;;;5040670;28;20060;-59
2023/09/06 01:37:21;;;;;;;18.48;12.48;;;19.50;99.90;;;;;;5037749;28;20120;-59
2023/09/06 01:39:47;;;;;;;15.07;11.95;;;19.50;99.90;;;;;;5041086;28;20899;-59
2023/09/06 01:42:13;;;;;;;14.00;12.52;;;19.50;99.90;;;;;;5035804;28;20049;-59
2023/09/06 01:44:39;;;;;;;15.13;12.07;;;19.50;99.90;;;;;;5034379;28;20052;-58
2023/09/06 01:47:05;;;;;;;16.83;13.52;;;19.50;99.90;;;;;;5036814;28;20498;-59
2023/09/06 01:49:31;;;;;;;15.68;12.63;;;19.50;99.90;;;;;;5036187;28;20040;-59
2023/09/06 01:51:57;;;;;;;14.07;12.57;;;19.50;99.90;;;;;;5037997;28;20067;-59
2023/09/06 01:54:23;;;;;;;14.07;11.60;;;19.40;99.90;;;;;;5038581;28;20123;-59
2023/09/06 01:56:49;;;;;;;15.07;12.10;;;19.40;99.90;;;;;;5021559;28;20051;-59
2023/09/06 01:59:15;;;;;;;13.80;12.40;;;19.40;99.90;;;;;;5018834;28;20471;-58
2023/09/06 02:01:41;;;;;;;13.20;11.20;;;19.40;99.90;;;;;;5037184;28;20058;-58
2023/09/06 02:04:06;;;;;;;13.95;11.18;;;19.30;99.90;;;;;;5025962;28;20219;-58
2023/09/06 02:06:32;;;;;;;13.75;11.20;;;19.30;99.90;;;;;;5033746;28;20041;-59
2023/09/06 02:08:58;;;;;;;12.25;10.85;;;19.30;99.90;;;;;;5036855;28;20037;-59
2023/09/06 02:11:24;;;;;;;11.73;10.40;;;19.30;99.90;;;;;;5033256;28;20163;-59
2023/09/06 02:13:49;;;;;;;13.10;10.50;;;19.30;99.90;;;;;;5033227;28;20041;-59
2023/09/06 02:16:17;;;;;;;17.02;10.93;;;19.30;99.90;;;;;;5035693;28;20522;-59
2023/09/06 02:18:43;;;;;;;14.18;10.90;;;19.30;99.90;;;;;;5030207;28;20140;-59
2023/09/06 02:21:09;;;;;;;13.48;11.48;;;19.30;99.90;;;;;;5030493;28;20040;-58
2023/09/06 02:23:36;;;;;;;11.35;9.85;;;19.30;99.90;;;;;;5034152;28;20053;-59
2023/09/06 02:26:03;;;;;;;12.45;10.30;;;19.30;99.90;;;;;;5032686;28;20057;-58
2023/09/06 02:28:28;;;;;;;11.02;9.60;;;19.30;99.90;;;;;;5028969;28;20166;-59
2023/09/06 02:30:54;;;;;;;10.45;9.20;;;19.30;99.90;;;;;;5035231;28;20049;-59
2023/09/06 02:33:20;;;;;;;11.85;9.35;;;19.30;99.90;;;;;;5031079;28;20045;-59
2023/09/06 02:35:46;;;;;;;14.43;9.10;;;19.30;99.90;;;;;;5013481;28;20479;-59
2023/09/06 02:38:13;;;;;;;12.18;9.00;;;19.30;99.90;;;;;;5032306;28;20079;-58
2023/09/06 02:40:42;;;;;;;9.48;8.43;;;19.30;99.90;;;;;;5033455;28;20047;-59
2023/09/06 02:43:10;;;;;;;9.63;8.63;;;19.30;99.90;;;;;;5044313;28;20072;-59
2023/09/06 02:45:37;;;;;;;10.45;8.18;;;19.30;99.90;;;;;;5031408;28;20108;-59
2023/09/06 02:48:15;;;;;;;11.57;8.43;;;19.30;99.90;;;;;;5028411;28;20165;-59
2023/09/06 02:50:41;;;;;;;10.77;8.68;;;19.30;99.90;;;;;;5031933;28;20036;-59
2023/09/06 02:53:19;;;;;;;12.98;8.48;;;19.30;99.90;;;;;;5033844;28;20045;-59
2023/09/06 02:55:47;;;;;;;9.65;8.20;;;19.20;99.90;;;;;;5028917;28;20169;-59
2023/09/06 02:58:15;;;;;;;9.10;8.10;;;19.20;99.90;;;;;;5031677;28;20048;-59
2023/09/06 03:00:43;;;;;;;9.93;7.55;;;19.20;99.90;;;;;;5028177;28;20111;-58
2023/09/06 03:03:10;;;;;;;8.68;7.00;;;19.20;99.90;;;;;;5034895;28;20045;-58
2023/09/06 03:05:41;;;;;;;8.27;7.28;;;19.10;99.90;;;;;;5015064;28;20162;-58
2023/09/06 03:08:12;;;;;;;7.13;6.40;;;19.10;99.90;;;;;;5033584;28;20041;-58
2023/09/06 03:10:40;;;;;;;13.57;8.15;;;19.10;99.90;;;;;;5035094;28;20041;-59
2023/09/06 03:13:05;;;;;;;9.38;7.32;;;19.10;99.90;;;;;;5031691;28;20541;-58
2023/09/06 03:15:31;;;;;;;10.25;7.55;;;19.10;99.90;;;;;;5037732;28;20053;-58
2023/09/06 03:18:02;;;;;;;9.50;6.97;;;19.10;99.90;;;;;;5035680;28;20107;-59
2023/09/06 03:20:42;;;;;;;8.70;7.80;;;19.00;99.90;;;;;;5037629;28;20041;-58
2023/09/06 03:23:19;;;;;;;6.75;6.05;;;19.00;99.90;;;;;;5033173;28;20085;-59
2023/09/06 03:25:57;;;;;;;8.57;6.93;;;19.00;99.90;;;;;;5031721;28;20045;-59
2023/09/06 03:28:25;;;;;;;8.48;6.47;;;18.90;99.90;;;;;;5036464;28;20753;-58
2023/09/06 03:30:58;;;;;;;8.32;6.55;;;18.90;99.90;;;;;;5038096;28;20152;-59
2023/09/06 03:33:25;;;;;;;9.10;6.43;;;18.90;99.90;;;;;;5041312;28;20427;-59
2023/09/06 03:35:51;;;;;;;7.32;6.20;;;18.90;99.90;;;;;;5042543;28;20045;-59
2023/09/06 03:38:17;;;;;;;8.43;6.60;;;18.90;99.90;;;;;;5042760;28;20063;-59
2023/09/06 03:40:44;;;;;;;7.00;6.07;;;18.90;99.90;;;;;;5043290;28;20961;-59
2023/09/06 03:43:19;;;;;;;10.35;7.15;;;18.80;99.90;;;;;;5037838;28;20773;-59
2023/09/06 03:45:55;;;;;;;8.60;6.82;;;18.80;99.90;;;;;;5040307;28;20044;-59
2023/09/06 03:48:23;;;;;;;7.05;6.10;;;18.80;99.90;;;;;;5039893;28;21061;-59
2023/09/06 03:50:55;;;;;;;9.07;6.10;;;18.80;99.90;;;;;;5025143;28;20033;-57
2023/09/06 03:53:23;;;;;;;10.07;6.30;;;18.70;99.90;;;;;;5042305;28;20040;-59
2023/09/06 03:55:50;;;;;;;9.82;6.03;;;18.70;99.90;;;;;;5043240;28;20048;-58
2023/09/06 03:58:15;;;;;;;7.70;6.05;;;18.70;99.90;;;;;;5041875;28;20041;-59
2023/09/06 04:00:44;;;;;;;6.85;6.15;;;18.60;99.90;;;;;;5035876;28;20041;-59
2023/09/06 04:03:11;;;;;;;8.82;7.30;;;18.60;99.90;;;;;;5022652;28;20045;-58
2023/09/06 04:05:37;;;;;;;10.35;7.57;;;18.60;99.90;;;;;;5040017;28;20468;-59
2023/09/06 04:08:09;;;;;;;8.05;7.25;;;18.60;99.90;;;;;;5033589;28;20488;-59
2023/09/06 04:10:36;;;;;;;9.82;7.40;;;18.60;99.90;;;;;;5038658;28;20411;-58
2023/09/06 04:13:03;;;;;;;9.13;6.88;;;18.50;99.90;;;;;;5036044;28;20083;-59
2023/09/06 04:15:29;;;;;;;8.63;6.07;;;18.40;99.90;;;;;;5029843;28;20056;-59
2023/09/06 04:17:57;;;;;;;8.35;6.35;;;18.50;99.90;;;;;;5038641;28;20052;-59
2023/09/06 04:20:30;;;;;;;10.77;6.60;;;18.40;99.90;;;;;;5039539;28;20120;-59
2023/09/06 04:22:57;;;;;;;11.13;7.03;;;18.50;99.90;;;;;;5038385;28;20044;-59
2023/09/06 04:25:23;;;;;;;10.02;7.10;;;18.40;99.90;;;;;;5033745;28;20083;-58
2023/09/06 04:27:56;;;;;;;9.90;7.47;;;18.40;99.90;;;;;;5038968;28;20809;-59
2023/09/06 04:30:23;;;;;;;10.23;7.32;;;18.30;99.90;;;;;;5032520;28;20091;-58
2023/09/06 04:32:50;;;;;;;8.73;7.40;;;18.40;99.90;;;;;;5036749;28;20373;-59
2023/09/06 04:35:16;;;;;;;8.23;6.60;;;18.30;99.90;;;;;;5041076;28;20048;-58
2023/09/06 04:37:43;;;;;;;8.35;7.30;;;18.30;99.90;;;;;;5034056;28;20078;-58
2023/09/06 04:40:14;;;;;;;8.40;7.50;;;18.30;99.90;;;;;;5038521;28;20045;-59
2023/09/06 04:42:40;;;;;;;8.27;6.43;;;18.30;99.90;;;;;;5035576;28;20536;-59
2023/09/06 04:45:10;;;;;;;9.15;7.20;;;18.30;99.90;;;;;;5037049;28;20391;-59
2023/09/06 04:47:39;;;;;;;8.70;7.35;;;18.20;99.90;;;;;;5041790;28;20590;-59
2023/09/06 04:50:06;;;;;;;10.68;7.18;;;18.20;99.90;;;;;;5038129;28;20213;-58
2023/09/06 04:52:45;;;;;;;9.50;7.32;;;18.20;99.90;;;;;;5032082;28;20040;-58
2023/09/06 04:55:14;;;;;;;9.52;6.70;;;18.20;99.90;;;;;;5034522;28;20842;-59
2023/09/06 04:57:45;;;;;;;9.18;6.90;;;18.10;99.90;;;;;;5033722;28;20129;-58
2023/09/06 05:00:17;;;;;;;8.77;7.18;;;18.10;99.90;;;;;;5036221;28;20541;-59
2023/09/06 05:02:47;;;;;;;8.60;6.88;;;18.10;99.90;;;;;;5037967;28;20606;-59
2023/09/06 05:05:14;;;;;;;10.82;8.05;;;18.10;99.90;;;;;;5035805;28;20044;-59
2023/09/06 05:07:45;;;;;;;9.25;6.80;;;18.10;99.90;;;;;;5039905;28;20078;-59
2023/09/06 05:10:11;;;;;;;10.15;7.22;;;18.00;99.90;;;;;;5036786;28;20045;-58
2023/09/06 05:12:38;;;;;;;10.10;7.53;;;18.00;99.90;;;;;;5037143;28;20049;-58
2023/09/06 05:15:04;;;;;;;12.25;7.57;;;18.00;99.90;;;;;;5038114;28;20053;-58
2023/09/06 05:17:32;;;;;;;10.30;7.47;;;18.00;99.90;;;;;;5023929;28;20036;-58
2023/09/06 05:20:32;;;;;;;11.10;7.47;;;18.00;99.90;;;;;;5021484;28;20102;-59
2023/09/06 05:23:04;;;;;;;12.20;7.60;;;18.00;99.90;;;;;;5021502;28;20431;-59
2023/09/06 05:25:30;;;;;;;8.68;7.20;;;18.00;99.90;;;;;;5025566;28;20032;-59
2023/09/06 05:27:58;;;;;;;14.63;7.22;;;18.00;99.90;;;;;;5028429;28;20072;-58
2023/09/06 05:30:25;;;;;;;13.40;7.20;;;18.00;99.90;;;;;;5034532;28;20267;-59
2023/09/06 05:32:51;;;;;;;10.02;7.40;;;18.00;99.90;;;;;;5038642;28;20495;-59
2023/09/06 05:35:17;;;;;;;8.52;6.60;;;18.10;99.90;;;;;;5022817;28;20037;-58
2023/09/06 05:37:42;;;;;;;10.50;7.00;;;18.10;99.90;;;;;;5041051;28;20037;-59
2023/09/06 05:40:09;;;;;;;9.25;7.00;;;18.20;99.90;;;;;;5040236;28;20056;-58
2023/09/06 05:42:35;;;;;;;11.80;7.25;;;18.20;99.90;;;;;;5036627;28;20059;-59
2023/09/06 05:45:01;;;;;;;7.35;6.57;;;18.20;99.90;;;;;;5040024;28;20032;-59
2023/09/06 05:47:27;;;;;;;9.27;6.72;;;18.20;99.90;;;;;;5038928;28;20047;-58
2023/09/06 05:49:55;;;;;;;8.93;6.85;;;18.20;99.90;;;;;;5026137;28;20051;-59
2023/09/06 05:52:24;;;;;;;9.23;6.82;;;18.30;99.90;;;;;;5035316;28;20114;-59
2023/09/06 05:54:50;;;;;;;10.75;6.65;;;18.30;99.90;;;;;;5041244;28;20033;-59
2023/09/06 05:57:16;;;;;;;11.50;6.38;;;18.30;99.90;;;;;;5038234;28;20430;-58
2023/09/06 05:59:42;;;;;;;11.88;6.47;;;18.30;99.90;;;;;;5042060;28;20048;-59
2023/09/06 06:02:08;;;;;;;8.93;7.00;;;18.40;99.90;;;;;;5034750;28;20048;-58
2023/09/06 06:04:34;;;;;;;11.57;6.25;;;18.40;99.90;;;;;;5046126;28;20033;-58
2023/09/06 06:07:00;;;;;;;14.10;6.82;;;18.40;99.90;;;;;;5023889;28;20037;-58
2023/09/06 06:09:27;;;;;;;10.05;6.18;;;18.40;99.90;;;;;;5038072;28;20063;-59
2023/09/06 06:11:53;;;;;;;13.20;6.47;;;18.50;99.90;;;;;;5030947;28;20045;-59
2023/09/06 06:14:20;;;;;;;9.98;5.65;;;18.50;99.90;;;;;;5004277;28;20072;-58
2023/09/06 06:16:46;;;;;;;10.05;6.10;;;18.60;99.90;;;;;;5040548;28;20411;-58
2023/09/06 06:19:15;;;;;;;8.50;6.07;;;18.60;99.90;;;;;;5036746;28;20044;-57
2023/09/06 06:21:40;;;;;;;12.32;6.13;;;18.70;99.90;;;;;;5036810;28;20041;-58
2023/09/06 06:24:09;;;;;;;10.18;5.40;;;18.70;99.90;;;;;;5035961;28;20048;-58
2023/09/06 06:26:35;;;;;;;8.75;6.18;;;18.80;99.90;;;;;;5042455;28;20049;-58
2023/09/06 06:29:01;;;;;;;9.65;5.45;;;18.80;99.90;;;;;;5049100;28;20395;-58
2023/09/06 06:31:28;;;;;;;7.82;5.47;;;18.90;99.90;;;;;;5037111;28;20052;-58
2023/09/06 06:33:54;;;;;;;8.55;5.32;;;18.90;99.90;;;;;;5049306;28;20044;-59
2023/09/06 06:36:21;;;;;;;7.30;5.10;;;19.00;99.90;;;;;;5045463;28;20041;-58
2023/09/06 06:38:47;;;;;;;5.78;4.97;;;19.00;99.90;;;;;;5046455;28;20137;-59
2023/09/06 06:41:20;;;;;;;7.38;5.25;;;19.10;99.90;;;;;;5010314;28;20072;-59
2023/09/06 06:43:47;;;;;;;9.55;5.10;;;19.20;99.90;;;;;;5033726;28;20041;-59
2023/09/06 06:46:31;;;;;;;6.75;5.35;;;19.20;99.90;;;;;;5026896;28;20050;-59
2023/09/06 06:48:57;;;;;;;10.35;5.57;;;19.30;99.90;;;;;;5030359;28;20402;-58
2023/09/06 06:51:28;;;;;;;6.20;4.38;;;19.40;99.90;;;;;;5031792;28;20041;-57
2023/09/06 06:53:54;;;;;;;5.50;4.80;;;19.40;99.90;;;;;;5031591;28;20500;-56
2023/09/06 06:56:21;;;;;;;8.57;5.07;;;19.40;99.90;;;;;;5032381;28;20133;-58
2023/09/06 06:58:50;;;;;;;9.65;4.72;;;19.50;99.90;;;;;;5033394;28;20045;-59
2023/09/06 07:01:16;;;;;;;8.90;5.00;;;19.60;99.90;;;;;;5034391;28;20040;-58
2023/09/06 07:03:42;;;;;;;6.55;4.57;;;19.60;99.90;;;;;;5027109;28;20379;-58
2023/09/06 07:06:08;;;;;;;6.07;4.90;;;19.70;99.90;;;;;;5030925;28;20033;-58
2023/09/06 07:08:38;;;;;;;8.13;4.50;;;19.70;99.90;;;;;;5033745;28;20657;-59
2023/09/06 07:11:04;;;;;;;6.88;4.28;;;19.80;99.90;;;;;;5029966;28;20037;-58
2023/09/06 07:13:31;;;;;;;9.38;4.60;;;19.90;99.90;;;;;;5027782;28;20068;-58
2023/09/06 07:15:57;;;;;;;8.55;4.90;;;19.90;99.90;;;;;;5034023;28;20067;-58
2023/09/06 07:18:22;;;;;;;7.63;4.75;;;20.00;99.90;;;;;;5030035;28;20469;-58
2023/09/06 07:20:48;;;;;;;7.63;4.68;;;20.00;99.90;;;;;;5033529;28;20495;-59
2023/09/06 07:23:14;;;;;;;9.88;4.50;;;20.10;99.90;;;;;;5030896;28;20070;-58
2023/09/06 07:25:47;;;;;;;5.93;4.38;;;20.20;99.90;;;;;;5027695;28;20566;-58
2023/09/06 07:28:16;;;;;;;7.03;4.32;;;20.30;99.90;;;;;;5031553;28;20132;-56
2023/09/06 07:30:42;;;;;;;9.30;4.18;;;20.40;99.90;;;;;;5029019;28;20041;-58
2023/09/06 07:33:08;;;;;;;6.32;4.25;;;20.50;99.90;;;;;;5034356;28;20056;-58
2023/09/06 07:35:34;;;;;;;8.55;4.07;;;20.60;99.90;;;;;;5034883;28;20052;-58
2023/09/06 07:38:00;;;;;;;4.80;3.90;;;20.70;99.90;;;;;;5038611;28;20075;-58
2023/09/06 07:40:26;;;;;;;7.22;4.10;;;20.80;99.90;;;;;;5035420;28;20045;-59
2023/09/06 07:42:53;;;;;;;8.82;4.32;;;20.90;99.90;;;;;;5025406;28;20487;-58
2023/09/06 07:45:18;;;;;;;6.70;3.85;;;21.10;99.90;;;;;;5030654;28;20029;-59
2023/09/06 07:47:44;;;;;;;5.53;3.88;;;21.20;99.90;;;;;;5030460;28;20052;-59
2023/09/06 07:50:10;;;;;;;6.05;3.42;;;21.30;99.90;;;;;;5036641;28;20623;-58
2023/09/06 07:52:37;;;;;;;5.82;3.90;;;21.40;99.90;;;;;;5021445;28;20480;-58
2023/09/06 07:55:07;;;;;;;4.00;3.38;;;21.60;99.90;;;;;;5038695;28;20045;-58
2023/09/06 07:57:33;;;;;;;5.20;3.65;;;21.70;99.90;;;;;;5041196;28;20075;-57
2023/09/06 07:59:59;;;;;;;9.32;3.50;;;21.90;99.90;;;;;;5040355;28;25914;-57
2023/09/06 08:02:25;;;;;;;3.40;3.00;;;22.00;99.90;;;;;;5040006;28;20036;-58
2023/09/06 08:04:51;;;;;;;6.47;3.38;;;22.10;99.90;;;;;;5038627;28;20592;-58
2023/09/06 08:07:17;;;;;;;5.28;2.97;;;22.30;99.90;;;;;;5040049;28;20040;-58
2023/09/06 08:09:43;;;;;;;3.08;2.70;;;22.40;99.90;;;;;;5039552;28;20072;-58
2023/09/06 08:12:09;;;;;;;4.95;2.70;;;22.50;99.90;;;;;;5038871;28;20128;-59
2023/09/06 08:14:35;;;;;;;4.82;2.60;;;22.60;99.90;;;;;;5034220;28;20049;-58
2023/09/06 08:17:01;;;;;;;4.28;2.72;;;22.70;99.90;;;;;;5035886;28;20065;-58
2023/09/06 08:19:27;;;;;;;3.35;2.70;;;22.90;99.90;;;;;;5036145;28;20047;-58
2023/09/06 08:21:53;;;;;;;3.05;2.17;;;23.00;99.90;;;;;;5031503;28;20045;-58
2023/09/06 08:24:19;;;;;;;6.43;2.60;;;23.20;99.90;;;;;;5036003;28;20342;-58
2023/09/06 08:26:48;;;;;;;9.35;2.67;;;23.30;99.90;;;;;;5032775;28;20061;-58
2023/09/06 08:29:14;;;;;;;9.95;2.60;;;23.40;99.90;;;;;;5037636;28;20036;-59
2023/09/06 08:31:39;;;;;;;5.25;2.72;;;23.50;99.90;;;;;;5036018;28;20076;-59
2023/09/06 08:34:05;;;;;;;2.80;2.50;;;23.70;99.90;;;;;;5038392;28;20849;-59
2023/09/06 08:36:31;;;;;;;3.33;2.53;;;23.80;99.90;;;;;;5033451;28;20072;-57
2023/09/06 08:38:58;;;;;;;3.47;2.35;;;23.90;99.90;;;;;;5035316;28;20080;-59
2023/09/06 08:41:26;;;;;;;4.53;2.55;;;24.00;99.90;;;;;;5034741;28;20486;-59
2023/09/06 08:43:52;;;;;;;4.72;2.40;;;24.10;99.90;;;;;;5035595;28;20415;-58
2023/09/06 08:46:22;;;;;;;6.68;2.60;;;24.30;99.90;;;;;;5035356;28;20419;-58
2023/09/06 08:48:49;;;;;;;2.80;2.50;;;24.40;99.90;;;;;;5031402;28;20554;-58
2023/09/06 08:51:16;;;;;;;5.10;2.50;;;24.50;99.90;;;;;;5035753;28;20045;-59
2023/09/06 08:53:43;;;;;;;3.00;2.17;;;24.60;99.90;;;;;;5026694;28;20045;-58
2023/09/06 08:56:10;;;;;;;5.28;2.20;;;24.70;99.90;;;;;;5036380;28;20127;-59
2023/09/06 08:58:36;;;;;;;8.50;2.70;;;24.80;99.90;;;;;;5032516;28;20041;-58
2023/09/06 09:01:04;;;;;;;4.07;2.08;;;25.00;99.90;;;;;;5022850;28;20043;-60
2023/09/06 09:03:31;;;;;;;4.70;2.15;;;25.10;99.90;;;;;;5036920;28;20041;-59
2023/09/06 09:06:01;;;;;;;4.50;2.25;;;25.20;99.90;;;;;;5033166;28;20553;-57
2023/09/06 09:08:30;;;;;;;4.97;2.20;;;25.30;99.90;;;;;;5037250;28;20041;-60
2023/09/06 09:11:15;;;;;;;5.93;2.00;;;25.40;99.90;;;;;;5033450;28;20041;-59
2023/09/06 09:13:42;;;;;;;6.40;2.60;;;25.60;99.90;;;;;;5035569;28;20052;-57
2023/09/06 09:16:12;;;;;;;4.65;2.38;;;25.80;99.90;;;;;;5035214;28;20491;-58
2023/09/06 09:18:40;;;;;;;4.80;2.30;;;25.90;99.90;;;;;;5031711;28;20041;-58
2023/09/06 09:21:10;;;;;;;8.70;2.30;;;26.10;99.70;;;;;;5034778;28;20128;-59
2023/09/06 09:23:47;;;;;;;8.93;2.30;;;26.20;99.20;;;;;;5035744;28;20053;-59
2023/09/06 09:26:13;;;;;;;4.25;2.50;;;26.30;98.90;;;;;;5033910;28;20061;-58
2023/09/06 09:28:42;;;;;;;5.47;2.03;;;26.40;98.60;;;;;;5034895;28;20495;-59
2023/09/06 09:31:14;;;;;;;3.65;2.10;;;26.60;98.30;;;;;;5032751;28;20425;-59
2023/09/06 09:33:40;;;;;;;3.77;2.10;;;26.70;97.70;;;;;;5035686;28;20064;-59
2023/09/06 09:36:10;;;;;;;3.17;2.03;;;26.80;97.20;;;;;;5020909;28;20475;-58
2023/09/06 09:38:40;;;;;;;4.00;2.10;;;26.90;96.90;;;;;;5038578;28;20448;-58
2023/09/06 09:41:07;;;;;;;3.85;1.98;;;27.00;96.80;;;;;;5036675;28;21282;-58
2023/09/06 09:43:34;;;;;;;2.38;2.00;;;27.10;96.40;;;;;;5040806;28;20052;-58
2023/09/06 09:46:01;;;;;;;3.22;2.20;;;27.20;95.80;;;;;;5037631;28;20043;-59
2023/09/06 09:48:31;;;;;;;4.68;2.33;;;27.30;95.30;;;;;;5037724;28;20123;-59
2023/09/06 09:51:00;;;;;;;6.20;2.10;;;27.40;94.90;;;;;;5036072;28;20051;-59
2023/09/06 09:53:30;;;;;;;3.28;1.92;;;27.50;94.20;;;;;;5039781;28;20131;-58
2023/09/06 09:55:59;;;;;;;9.45;2.00;;;27.70;94.40;;;;;;5036918;28;20470;-58
2023/09/06 09:58:26;;;;;;;6.05;2.15;;;27.80;93.40;;;;;;5038741;28;20132;-58
2023/09/06 10:00:53;;;;;;;4.38;1.88;;;27.90;92.80;;;;;;5036750;28;20337;-59
2023/09/06 10:03:22;;;;;;;3.15;1.98;;;27.90;91.70;;;;;;5018584;28;20048;-59
2023/09/06 10:05:48;;;;;;;4.97;1.90;;;28.00;91.40;;;;;;5036895;28;20136;-60
2023/09/06 10:08:16;;;;;;;6.60;2.50;;;28.10;91.60;;;;;;5038347;28;20040;-58
2023/09/06 10:10:41;;;;;;;5.63;1.80;;;28.30;91.60;;;;;;5036443;28;20053;-58
2023/09/06 10:13:08;;;;;;;5.90;2.30;;;28.40;90.60;;;;;;5036186;28;20047;-59
2023/09/06 10:15:35;;;;;;;5.55;1.92;;;28.50;89.60;;;;;;5036036;28;20099;-58
2023/09/06 10:18:01;;;;;;;3.85;1.90;;;28.60;88.30;;;;;;5031880;28;20110;-59
2023/09/06 10:20:30;;;;;;;7.32;2.13;;;28.70;87.40;;;;;;5032454;28;20127;-59
2023/09/06 10:22:57;;;;;;;4.38;1.85;;;28.80;87.10;;;;;;5038400;28;20158;-59
2023/09/06 10:25:26;;;;;;;8.45;2.00;;;28.90;85.60;;;;;;5037730;28;20498;-58
2023/09/06 10:27:54;;;;;;;3.83;1.77;;;29.00;85.60;;;;;;5038077;28;20515;-58
2023/09/06 10:30:43;;;;;;;4.97;1.90;;;29.10;84.60;;;;;;5037752;28;20136;-58
2023/09/06 10:33:11;;;;;;;6.97;2.05;;;29.20;83.50;;;;;;5035812;28;20912;-59
2023/09/06 10:35:45;;;;;;;4.55;2.35;;;29.30;83.00;;;;;;5039832;28;20142;-59
2023/09/06 10:38:15;;;;;;;2.35;2.15;;;29.40;84.60;;;;;;5036035;28;20045;-59
2023/09/06 10:41:04;;;;;;;4.88;2.22;;;29.60;84.30;;;;;;5035727;28;20049;-59
2023/09/06 10:43:52;;;;;;;4.15;1.90;;;29.80;85.30;;;;;;5033215;28;20053;-58
2023/09/06 10:46:18;;;;;;;4.53;1.95;;;29.90;84.50;;;;;;5034917;28;20507;-59
2023/09/06 10:49:12;;;;;;;5.18;2.05;;;30.10;82.10;;;;;;5036846;28;20451;-58
2023/09/06 10:51:57;;;;;;;2.83;1.90;;;30.20;82.30;;;;;;5036777;28;20045;-59
2023/09/06 10:54:53;;;;;;;2.85;1.70;;;30.30;80.80;;;;;;5032476;28;20079;-59
2023/09/06 10:57:19;;;;;;;2.80;1.63;;;30.40;82.10;;;;;;5033225;28;20103;-59
2023/09/06 10:59:56;;;;;;;4.07;2.00;;;30.60;80.80;;;;;;5048190;28;20433;-59
2023/09/06 11:02:21;;;;;;;6.00;1.73;;;30.80;81.00;;;;;;5043313;28;20676;-59
2023/09/06 11:04:47;;;;;;;7.82;2.08;;;30.90;80.20;;;;;;5046679;28;20040;-59
2023/09/06 11:07:13;;;;;;;4.18;1.80;;;31.00;79.30;;;;;;5042180;28;20040;-59
2023/09/06 11:09:50;;;;;;;4.68;1.75;;;31.20;79.10;;;;;;5047403;28;20041;-59
2023/09/06 11:12:17;;;;;;;3.60;1.83;;;31.30;77.90;;;;;;5043702;28;20041;-58
2023/09/06 11:14:47;;;;;;;2.55;1.83;;;31.40;76.70;;;;;;5036919;28;20055;-59
2023/09/06 11:17:23;;;;;;;6.75;1.58;;;31.60;75.80;;;;;;5039207;28;20064;-59
2023/09/06 11:19:49;;;;;;;2.72;1.60;;;31.70;72.60;;;;;;5040067;28;20032;-59
2023/09/06 11:22:16;;;;;;;3.72;1.60;;;31.70;71.50;;;;;;5024373;28;20098;-58
2023/09/06 11:24:42;;;;;;;2.97;1.88;;;31.80;70.80;;;;;;5044590;28;20112;-59
2023/09/06 11:27:24;;;;;;;3.92;1.65;;;31.90;70.20;;;;;;5046422;28;20052;-58
2023/09/06 11:30:09;;;;;;;2.47;1.70;;;31.90;68.80;;;;;;5043063;28;20596;-58
2023/09/06 11:32:35;;;;;;;4.13;1.73;;;31.90;68.70;;;;;;5043474;28;20051;-57
2023/09/06 11:35:03;;;;;;;3.95;1.77;;;32.00;67.10;;;;;;5042274;28;20041;-58
2023/09/06 11:37:30;;;;;;;4.25;1.50;;;32.00;66.90;;;;;;5045240;28;20043;-58
2023/09/06 11:39:57;;;;;;;3.53;1.80;;;32.10;66.70;;;;;;5043515;28;20542;-56
2023/09/06 11:42:24;;;;;;;3.55;1.60;;;32.20;67.10;;;;;;5034507;28;20040;-57
2023/09/06 11:44:53;;;;;;;5.35;1.50;;;32.40;68.10;;;;;;5047059;28;20064;-58
2023/09/06 11:47:23;;;;;;;2.78;1.75;;;32.50;67.10;;;;;;5045809;28;20036;-57
2023/09/06 11:49:49;;;;;;;8.35;1.73;;;32.70;65.50;;;;;;5045756;28;20145;-57
2023/09/06 11:52:19;;;;;;;1.88;1.70;;;32.60;64.10;;;;;;5023158;28;20553;-57
2023/09/06 11:54:50;;;;;;;2.72;1.90;;;32.60;64.00;;;;;;5037093;28;20495;-56
2023/09/06 11:57:27;;;;;;;2.70;1.52;;;32.50;63.40;;;;;;5039089;28;20550;-56
2023/09/06 11:59:57;;;;;;;5.35;2.08;;;32.60;64.00;;;;;;5038726;28;20116;-56
2023/09/06 12:02:26;;;;;;;2.70;1.60;;;32.70;64.20;;;;;;5028293;28;21002;-57
2023/09/06 12:04:59;;;;;;;1.80;1.70;;;32.90;63.30;;;;;;5032739;28;20069;-57
2023/09/06 12:07:25;;;;;;;2.83;1.63;;;32.90;62.40;;;;;;5032512;28;20049;-57
2023/09/06 12:09:51;;;;;;;2.45;1.60;;;32.90;62.60;;;;;;5033046;28;20052;-58
2023/09/06 12:12:17;;;;;;;2.35;1.65;;;33.00;62.50;;;;;;5036775;28;20045;-56
2023/09/06 12:14:44;;;;;;;3.92;1.77;;;33.10;62.50;;;;;;5033552;28;20057;-58
2023/09/06 12:17:11;;;;;;;1.73;1.33;;;33.20;61.50;;;;;;5033284;28;20079;-57
2023/09/06 12:19:37;;;;;;;2.40;1.50;;;33.20;60.30;;;;;;5035014;28;21079;-57
2023/09/06 12:22:05;;;;;;;2.33;1.55;;;33.20;60.50;;;;;;5034048;28;20037;-58
2023/09/06 12:24:33;;;;;;;3.97;1.50;;;33.30;61.70;;;;;;5033747;28;20730;-57
2023/09/06 12:26:58;;;;;;;2.40;1.63;;;33.40;60.80;;;;;;5038439;28;20160;-58
2023/09/06 12:29:24;;;;;;;2.63;1.80;;;33.50;61.20;;;;;;5031446;28;20071;-57
2023/09/06 12:31:52;;;;;;;4.85;1.70;;;33.60;61.30;;;;;;5033594;28;20047;-57
2023/09/06 12:34:18;;;;;;;3.85;1.58;;;33.60;59.80;;;;;;5028924;28;20072;-57
2023/09/06 12:36:44;;;;;;;3.00;1.50;;;33.70;59.80;;;;;;5045298;28;20040;-57
2023/09/06 12:39:11;;;;;;;1.50;1.33;;;33.80;59.20;;;;;;5045028;28;20041;-57
2023/09/06 12:41:37;;;;;;;2.72;1.60;;;33.80;58.50;;;;;;5045224;28;20159;-57
2023/09/06 12:44:03;;;;;;;1.50;1.40;;;33.90;58.80;;;;;;5046354;28;20032;-55
2023/09/06 12:46:29;;;;;;;3.08;1.60;;;33.90;58.50;;;;;;5044470;28;20115;-56
2023/09/06 12:48:55;;;;;;;1.48;1.30;;;34.10;59.10;;;;;;5043116;28;20039;-55